Sainte-Agathe, Canada
Current Conditions -  °F | °C
As of 2:00 PM on Friday 24 Oct 2014 (Local Time) from CYMX Reporting Station
Broken Clouds Broken Clouds  
Wind Chill: 57°   Ceiling: 7200
Heat Index: 57°   Visibility: 45mi
Dew Point: 37°   Wind: 2mph
Humidity: 48%   Direction: NA
Pressure: 29.86"   Gusts: NA
Location:  46.03°N, 74.28°W
Report Text: CYMX 241800Z VRB02KT 45SM SCT040 BKN072 BKN250 14/03 A2986 RMK SC3AC2CI1 SLP115
Loading
Personal Weather Stations






























Interactive Weather Map
Tropical Storm Tracking
New forecast layout! Learn more

10-Day Weather Forecast

Advertisements
Track Severe Weather on mobile